Terminal Aerodrome Forecast
Issued by NWS Milwaukee/Sullivan, WI

Home | Current Version | Previous Version | Text Only | Print | Product List | Glossary On
Versions: 1 2 3 4 5 6 7 8 9 10 11 12 13 14 15 16 17 18 19 20 21 22 23 24 25 26 27 28 29 30 31 32 33 34 35 36 37 38 39 40 41 42 43 44 45 46 47 48 49 50
000
FTUS43 KMKX 060815 AAB
TAFMSN
TAF AMD
KMSN 060815Z 0608/0706 15005KT 4SM BR OVC005
     FM061600 21008KT 3SM BR OVC004
     FM061800 25009KT 6SM BR OVC008
     FM061900 26010KT P6SM BKN010
     FM062000 26011KT P6SM BKN030
     FM062200 27011G20KT P6SM SCT250=

USA.gov is the U.S. government's official web portal to all federal, state and local government web resources and services.